sensor_id;sensor_type;location;lat;lon;timestamp;P1;durP1;ratioP1;P2;durP2;ratioP2
19388;SDS011;9830;41.876;23.474;2023-12-29T00:01:54;11.63;;;6.27;;
19388;SDS011;9830;41.876;23.474;2023-12-29T00:04:20;5.83;;;4.70;;
19388;SDS011;9830;41.876;23.474;2023-12-29T00:06:46;6.80;;;3.63;;
19388;SDS011;9830;41.876;23.474;2023-12-29T00:09:11;9.80;;;5.20;;
19388;SDS011;9830;41.876;23.474;2023-12-29T00:11:38;4.13;;;3.73;;
19388;SDS011;9830;41.876;23.474;2023-12-29T00:14:04;17.57;;;4.67;;
19388;SDS011;9830;41.876;23.474;2023-12-29T00:16:30;4.43;;;3.50;;
19388;SDS011;9830;41.876;23.474;2023-12-29T00:18:56;2.33;;;2.20;;
19388;SDS011;9830;41.876;23.474;2023-12-29T00:21:21;6.40;;;3.73;;
19388;SDS011;9830;41.876;23.474;2023-12-29T00:23:47;0.83;;;0.83;;
19388;SDS011;9830;41.876;23.474;2023-12-29T00:26:16;2.40;;;0.83;;
19388;SDS011;9830;41.876;23.474;2023-12-29T00:28:42;5.30;;;1.77;;
19388;SDS011;9830;41.876;23.474;2023-12-29T00:31:09;1.90;;;1.80;;
19388;SDS011;9830;41.876;23.474;2023-12-29T00:33:39;1.50;;;1.40;;
19388;SDS011;9830;41.876;23.474;2023-12-29T00:36:05;0.93;;;0.93;;
19388;SDS011;9830;41.876;23.474;2023-12-29T00:38:31;0.77;;;0.77;;
19388;SDS011;9830;41.876;23.474;2023-12-29T00:40:56;2.10;;;2.00;;
19388;SDS011;9830;41.876;23.474;2023-12-29T00:43:22;1.07;;;1.07;;
19388;SDS011;9830;41.876;23.474;2023-12-29T00:45:48;6.03;;;2.73;;
19388;SDS011;9830;41.876;23.474;2023-12-29T00:48:13;16.73;;;1.77;;
19388;SDS011;9830;41.876;23.474;2023-12-29T00:50:39;0.40;;;0.40;;
19388;SDS011;9830;41.876;23.474;2023-12-29T00:53:05;1.03;;;1.03;;
19388;SDS011;9830;41.876;23.474;2023-12-29T00:55:30;0.70;;;0.70;;
19388;SDS011;9830;41.876;23.474;2023-12-29T00:57:56;1.53;;;1.43;;
19388;SDS011;9830;41.876;23.474;2023-12-29T01:00:21;3.63;;;1.57;;
19388;SDS011;9830;41.876;23.474;2023-12-29T01:02:47;1.50;;;0.70;;
19388;SDS011;9830;41.876;23.474;2023-12-29T01:05:16;1.70;;;1.37;;
19388;SDS011;9830;41.876;23.474;2023-12-29T01:07:42;4.63;;;1.67;;
19388;SDS011;9830;41.876;23.474;2023-12-29T01:10:08;5.30;;;2.57;;
19388;SDS011;9830;41.876;23.474;2023-12-29T01:12:34;0.83;;;0.83;;
19388;SDS011;9830;41.876;23.474;2023-12-29T01:15:00;3.20;;;2.43;;
19388;SDS011;9830;41.876;23.474;2023-12-29T01:17:25;0.50;;;0.50;;
19388;SDS011;9830;41.876;23.474;2023-12-29T01:19:53;1.07;;;1.03;;
19388;SDS011;9830;41.876;23.474;2023-12-29T01:22:19;1.70;;;1.43;;
19388;SDS011;9830;41.876;23.474;2023-12-29T01:24:45;4.17;;;2.20;;
19388;SDS011;9830;41.876;23.474;2023-12-29T01:27:10;1.50;;;0.87;;
19388;SDS011;9830;41.876;23.474;2023-12-29T01:29:36;0.20;;;0.20;;
19388;SDS011;9830;41.876;23.474;2023-12-29T01:32:01;2.17;;;1.90;;
19388;SDS011;9830;41.876;23.474;2023-12-29T01:34:28;3.30;;;1.93;;
19388;SDS011;9830;41.876;23.474;2023-12-29T01:37:02;1.87;;;1.70;;
19388;SDS011;9830;41.876;23.474;2023-12-29T01:39:29;3.60;;;2.83;;
19388;SDS011;9830;41.876;23.474;2023-12-29T01:41:55;1.73;;;1.27;;
19388;SDS011;9830;41.876;23.474;2023-12-29T01:44:21;2.80;;;2.60;;
19388;SDS011;9830;41.876;23.474;2023-12-29T01:46:49;1.87;;;1.77;;
19388;SDS011;9830;41.876;23.474;2023-12-29T01:49:20;4.67;;;2.77;;
19388;SDS011;9830;41.876;23.474;2023-12-29T01:51:48;1.33;;;1.20;;
19388;SDS011;9830;41.876;23.474;2023-12-29T01:54:18;3.43;;;3.13;;
19388;SDS011;9830;41.876;23.474;2023-12-29T01:56:46;4.90;;;2.47;;
19388;SDS011;9830;41.876;23.474;2023-12-29T01:59:13;4.13;;;3.47;;
19388;SDS011;9830;41.876;23.474;2023-12-29T02:01:39;2.17;;;2.07;;
19388;SDS011;9830;41.876;23.474;2023-12-29T02:04:06;11.80;;;4.33;;
19388;SDS011;9830;41.876;23.474;2023-12-29T02:06:33;2.90;;;2.67;;
19388;SDS011;9830;41.876;23.474;2023-12-29T02:08:59;1.40;;;1.40;;
19388;SDS011;9830;41.876;23.474;2023-12-29T02:11:29;3.50;;;0.87;;
19388;SDS011;9830;41.876;23.474;2023-12-29T02:13:55;0.87;;;0.87;;
19388;SDS011;9830;41.876;23.474;2023-12-29T02:16:22;0.50;;;0.50;;
19388;SDS011;9830;41.876;23.474;2023-12-29T02:18:59;1.57;;;1.50;;
19388;SDS011;9830;41.876;23.474;2023-12-29T02:21:29;0.83;;;0.83;;
19388;SDS011;9830;41.876;23.474;2023-12-29T02:23:55;6.70;;;3.23;;
19388;SDS011;9830;41.876;23.474;2023-12-29T02:26:20;10.70;;;6.30;;
19388;SDS011;9830;41.876;23.474;2023-12-29T02:28:53;1.67;;;1.60;;
19388;SDS011;9830;41.876;23.474;2023-12-29T02:31:25;8.37;;;3.43;;
19388;SDS011;9830;41.876;23.474;2023-12-29T02:33:54;2.50;;;2.40;;
19388;SDS011;9830;41.876;23.474;2023-12-29T02:36:21;9.20;;;6.03;;
19388;SDS011;9830;41.876;23.474;2023-12-29T02:38:48;5.53;;;4.80;;
19388;SDS011;9830;41.876;23.474;2023-12-29T02:41:14;5.10;;;4.13;;
19388;SDS011;9830;41.876;23.474;2023-12-29T02:43:40;20.50;;;7.50;;
19388;SDS011;9830;41.876;23.474;2023-12-29T02:46:05;2.87;;;1.87;;
19388;SDS011;9830;41.876;23.474;2023-12-29T02:48:31;5.57;;;4.23;;
19388;SDS011;9830;41.876;23.474;2023-12-29T02:50:57;6.43;;;4.80;;
19388;SDS011;9830;41.876;23.474;2023-12-29T02:53:22;2.20;;;2.10;;
19388;SDS011;9830;41.876;23.474;2023-12-29T02:55:48;16.83;;;7.23;;
19388;SDS011;9830;41.876;23.474;2023-12-29T02:58:14;6.03;;;4.00;;
19388;SDS011;9830;41.876;23.474;2023-12-29T03:00:39;4.03;;;3.50;;
19388;SDS011;9830;41.876;23.474;2023-12-29T03:03:05;2.83;;;2.73;;
19388;SDS011;9830;41.876;23.474;2023-12-29T03:05:31;7.47;;;3.07;;
19388;SDS011;9830;41.876;23.474;2023-12-29T03:07:56;6.13;;;5.30;;
19388;SDS011;9830;41.876;23.474;2023-12-29T03:10:22;4.10;;;2.63;;
19388;SDS011;9830;41.876;23.474;2023-12-29T03:12:48;4.47;;;4.07;;
19388;SDS011;9830;41.876;23.474;2023-12-29T03:15:14;6.53;;;4.93;;
19388;SDS011;9830;41.876;23.474;2023-12-29T03:17:40;24.20;;;4.50;;
19388;SDS011;9830;41.876;23.474;2023-12-29T03:20:05;3.27;;;3.00;;
19388;SDS011;9830;41.876;23.474;2023-12-29T03:22:32;3.67;;;3.47;;
19388;SDS011;9830;41.876;23.474;2023-12-29T03:24:58;3.83;;;3.53;;
19388;SDS011;9830;41.876;23.474;2023-12-29T03:27:24;11.17;;;5.87;;
19388;SDS011;9830;41.876;23.474;2023-12-29T03:29:50;7.40;;;4.23;;
19388;SDS011;9830;41.876;23.474;2023-12-29T03:32:15;1.53;;;1.43;;
19388;SDS011;9830;41.876;23.474;2023-12-29T03:34:42;4.23;;;3.87;;
19388;SDS011;9830;41.876;23.474;2023-12-29T03:37:08;10.07;;;3.83;;
19388;SDS011;9830;41.876;23.474;2023-12-29T03:39:34;1.57;;;1.50;;
19388;SDS011;9830;41.876;23.474;2023-12-29T03:42:00;14.50;;;3.23;;
19388;SDS011;9830;41.876;23.474;2023-12-29T03:44:26;1.50;;;1.43;;
19388;SDS011;9830;41.876;23.474;2023-12-29T03:46:52;5.40;;;4.90;;
19388;SDS011;9830;41.876;23.474;2023-12-29T03:49:17;3.93;;;2.67;;
19388;SDS011;9830;41.876;23.474;2023-12-29T03:51:44;4.60;;;4.30;;
19388;SDS011;9830;41.876;23.474;2023-12-29T03:54:11;2.73;;;2.53;;
19388;SDS011;9830;41.876;23.474;2023-12-29T03:56:37;15.93;;;4.07;;
19388;SDS011;9830;41.876;23.474;2023-12-29T03:59:02;3.97;;;3.53;;
19388;SDS011;9830;41.876;23.474;2023-12-29T04:01:28;5.33;;;3.93;;
19388;SDS011;9830;41.876;23.474;2023-12-29T04:03:54;2.07;;;1.93;;
19388;SDS011;9830;41.876;23.474;2023-12-29T04:06:20;5.70;;;3.63;;
19388;SDS011;9830;41.876;23.474;2023-12-29T04:08:45;18.43;;;4.47;;
19388;SDS011;9830;41.876;23.474;2023-12-29T04:11:11;2.93;;;2.80;;
19388;SDS011;9830;41.876;23.474;2023-12-29T04:13:37;3.43;;;3.17;;
19388;SDS011;9830;41.876;23.474;2023-12-29T04:16:03;3.13;;;2.87;;
19388;SDS011;9830;41.876;23.474;2023-12-29T04:18:29;4.53;;;4.13;;
19388;SDS011;9830;41.876;23.474;2023-12-29T04:20:54;4.83;;;3.67;;
19388;SDS011;9830;41.876;23.474;2023-12-29T04:23:20;2.63;;;2.30;;
19388;SDS011;9830;41.876;23.474;2023-12-29T04:25:46;1.93;;;1.83;;
19388;SDS011;9830;41.876;23.474;2023-12-29T04:28:12;5.40;;;4.37;;
19388;SDS011;9830;41.876;23.474;2023-12-29T04:30:37;10.50;;;5.17;;
19388;SDS011;9830;41.876;23.474;2023-12-29T04:33:03;4.00;;;3.07;;
19388;SDS011;9830;41.876;23.474;2023-12-29T04:35:29;8.37;;;3.53;;
19388;SDS011;9830;41.876;23.474;2023-12-29T04:37:55;7.30;;;3.03;;
19388;SDS011;9830;41.876;23.474;2023-12-29T04:40:20;6.37;;;2.70;;
19388;SDS011;9830;41.876;23.474;2023-12-29T04:42:46;4.13;;;3.83;;
19388;SDS011;9830;41.876;23.474;2023-12-29T04:45:12;4.70;;;3.77;;
19388;SDS011;9830;41.876;23.474;2023-12-29T04:47:38;1.67;;;1.57;;
19388;SDS011;9830;41.876;23.474;2023-12-29T04:50:04;2.70;;;2.50;;
19388;SDS011;9830;41.876;23.474;2023-12-29T04:52:33;13.47;;;4.73;;
19388;SDS011;9830;41.876;23.474;2023-12-29T04:54:59;1.50;;;1.40;;
19388;SDS011;9830;41.876;23.474;2023-12-29T04:57:24;4.70;;;3.73;;
19388;SDS011;9830;41.876;23.474;2023-12-29T04:59:50;17.73;;;4.07;;
19388;SDS011;9830;41.876;23.474;2023-12-29T05:02:16;9.83;;;3.73;;
19388;SDS011;9830;41.876;23.474;2023-12-29T05:04:41;5.53;;;5.13;;
19388;SDS011;9830;41.876;23.474;2023-12-29T05:07:07;5.20;;;4.80;;
19388;SDS011;9830;41.876;23.474;2023-12-29T05:09:35;9.13;;;2.87;;
19388;SDS011;9830;41.876;23.474;2023-12-29T05:12:01;7.77;;;4.00;;
19388;SDS011;9830;41.876;23.474;2023-12-29T05:14:27;4.33;;;3.17;;
19388;SDS011;9830;41.876;23.474;2023-12-29T05:16:52;6.27;;;3.80;;
19388;SDS011;9830;41.876;23.474;2023-12-29T05:19:18;7.47;;;3.23;;
19388;SDS011;9830;41.876;23.474;2023-12-29T05:21:44;3.63;;;3.43;;
19388;SDS011;9830;41.876;23.474;2023-12-29T05:24:10;7.37;;;4.87;;
19388;SDS011;9830;41.876;23.474;2023-12-29T05:26:36;7.37;;;3.60;;
19388;SDS011;9830;41.876;23.474;2023-12-29T05:29:02;3.27;;;2.93;;
19388;SDS011;9830;41.876;23.474;2023-12-29T05:31:28;2.23;;;2.13;;
19388;SDS011;9830;41.876;23.474;2023-12-29T05:33:53;4.33;;;4.03;;
19388;SDS011;9830;41.876;23.474;2023-12-29T05:36:20;4.33;;;3.93;;
19388;SDS011;9830;41.876;23.474;2023-12-29T05:38:46;4.83;;;4.10;;
19388;SDS011;9830;41.876;23.474;2023-12-29T05:41:15;10.03;;;4.27;;
19388;SDS011;9830;41.876;23.474;2023-12-29T05:43:41;3.93;;;3.53;;
19388;SDS011;9830;41.876;23.474;2023-12-29T05:46:10;18.70;;;5.87;;
19388;SDS011;9830;41.876;23.474;2023-12-29T05:48:37;8.00;;;3.23;;
19388;SDS011;9830;41.876;23.474;2023-12-29T05:51:09;2.37;;;2.17;;
19388;SDS011;9830;41.876;23.474;2023-12-29T05:53:36;6.37;;;3.87;;
19388;SDS011;9830;41.876;23.474;2023-12-29T05:56:02;3.03;;;2.83;;
19388;SDS011;9830;41.876;23.474;2023-12-29T05:58:28;1.93;;;1.83;;
19388;SDS011;9830;41.876;23.474;2023-12-29T06:00:54;3.93;;;3.63;;
19388;SDS011;9830;41.876;23.474;2023-12-29T06:03:20;6.57;;;3.90;;
19388;SDS011;9830;41.876;23.474;2023-12-29T06:05:47;12.63;;;6.60;;
19388;SDS011;9830;41.876;23.474;2023-12-29T06:08:13;11.87;;;6.80;;
19388;SDS011;9830;41.876;23.474;2023-12-29T06:10:39;8.97;;;5.30;;
19388;SDS011;9830;41.876;23.474;2023-12-29T06:13:04;11.30;;;7.43;;
19388;SDS011;9830;41.876;23.474;2023-12-29T06:15:30;14.20;;;7.17;;
19388;SDS011;9830;41.876;23.474;2023-12-29T06:17:56;9.90;;;8.23;;
19388;SDS011;9830;41.876;23.474;2023-12-29T06:20:22;7.70;;;4.33;;
19388;SDS011;9830;41.876;23.474;2023-12-29T06:22:48;3.87;;;3.57;;
19388;SDS011;9830;41.876;23.474;2023-12-29T06:25:14;5.90;;;4.43;;
19388;SDS011;9830;41.876;23.474;2023-12-29T06:27:40;5.90;;;4.57;;
19388;SDS011;9830;41.876;23.474;2023-12-29T06:30:06;2.17;;;2.00;;
19388;SDS011;9830;41.876;23.474;2023-12-29T06:32:33;9.77;;;3.83;;
19388;SDS011;9830;41.876;23.474;2023-12-29T06:34:59;3.67;;;2.83;;
19388;SDS011;9830;41.876;23.474;2023-12-29T06:37:25;4.80;;;4.47;;
19388;SDS011;9830;41.876;23.474;2023-12-29T06:39:51;46.23;;;5.47;;
19388;SDS011;9830;41.876;23.474;2023-12-29T06:42:17;4.63;;;3.13;;
19388;SDS011;9830;41.876;23.474;2023-12-29T06:44:42;1.90;;;1.80;;
19388;SDS011;9830;41.876;23.474;2023-12-29T06:47:08;8.90;;;3.63;;
19388;SDS011;9830;41.876;23.474;2023-12-29T06:49:34;5.17;;;3.30;;
19388;SDS011;9830;41.876;23.474;2023-12-29T06:52:00;18.07;;;6.03;;
19388;SDS011;9830;41.876;23.474;2023-12-29T06:54:26;14.33;;;3.87;;
19388;SDS011;9830;41.876;23.474;2023-12-29T06:56:52;2.80;;;2.63;;
19388;SDS011;9830;41.876;23.474;2023-12-29T06:59:18;4.90;;;3.23;;
19388;SDS011;9830;41.876;23.474;2023-12-29T07:01:45;5.97;;;4.97;;
19388;SDS011;9830;41.876;23.474;2023-12-29T07:04:11;49.90;;;8.80;;
19388;SDS011;9830;41.876;23.474;2023-12-29T07:06:38;5.03;;;4.53;;
19388;SDS011;9830;41.876;23.474;2023-12-29T07:09:04;6.30;;;5.13;;
19388;SDS011;9830;41.876;23.474;2023-12-29T07:11:30;6.53;;;5.63;;
19388;SDS011;9830;41.876;23.474;2023-12-29T07:13:56;15.93;;;4.53;;
19388;SDS011;9830;41.876;23.474;2023-12-29T07:16:22;7.20;;;6.47;;
19388;SDS011;9830;41.876;23.474;2023-12-29T07:18:48;4.17;;;3.47;;
19388;SDS011;9830;41.876;23.474;2023-12-29T07:21:14;4.93;;;4.47;;
19388;SDS011;9830;41.876;23.474;2023-12-29T07:23:41;6.03;;;5.30;;
19388;SDS011;9830;41.876;23.474;2023-12-29T07:26:07;7.00;;;4.67;;
19388;SDS011;9830;41.876;23.474;2023-12-29T07:28:33;3.37;;;3.07;;
19388;SDS011;9830;41.876;23.474;2023-12-29T07:30:59;5.47;;;3.03;;
19388;SDS011;9830;41.876;23.474;2023-12-29T07:33:25;5.23;;;4.33;;
19388;SDS011;9830;41.876;23.474;2023-12-29T07:35:51;13.13;;;5.30;;
19388;SDS011;9830;41.876;23.474;2023-12-29T07:38:17;7.87;;;4.27;;
19388;SDS011;9830;41.876;23.474;2023-12-29T07:40:42;6.60;;;3.40;;
19388;SDS011;9830;41.876;23.474;2023-12-29T07:43:08;8.13;;;4.50;;
19388;SDS011;9830;41.876;23.474;2023-12-29T07:45:34;3.50;;;3.27;;
19388;SDS011;9830;41.876;23.474;2023-12-29T07:48:01;3.30;;;2.37;;
19388;SDS011;9830;41.876;23.474;2023-12-29T07:50:28;2.50;;;1.43;;
19388;SDS011;9830;41.876;23.474;2023-12-29T07:52:53;2.90;;;2.70;;
19388;SDS011;9830;41.876;23.474;2023-12-29T07:55:19;6.57;;;3.27;;
19388;SDS011;9830;41.876;23.474;2023-12-29T07:57:45;2.13;;;1.93;;
19388;SDS011;9830;41.876;23.474;2023-12-29T08:00:12;9.53;;;4.30;;
19388;SDS011;9830;41.876;23.474;2023-12-29T08:02:39;2.43;;;2.23;;
19388;SDS011;9830;41.876;23.474;2023-12-29T08:05:05;4.30;;;3.27;;
19388;SDS011;9830;41.876;23.474;2023-12-29T08:07:33;4.47;;;2.57;;
19388;SDS011;9830;41.876;23.474;2023-12-29T08:09:59;2.10;;;2.00;;
19388;SDS011;9830;41.876;23.474;2023-12-29T08:12:25;6.30;;;2.90;;
19388;SDS011;9830;41.876;23.474;2023-12-29T08:14:51;5.07;;;2.27;;
19388;SDS011;9830;41.876;23.474;2023-12-29T08:17:17;3.13;;;2.93;;
19388;SDS011;9830;41.876;23.474;2023-12-29T08:19:43;5.27;;;4.40;;
19388;SDS011;9830;41.876;23.474;2023-12-29T08:22:08;3.57;;;2.40;;
19388;SDS011;9830;41.876;23.474;2023-12-29T08:24:34;8.73;;;4.90;;
19388;SDS011;9830;41.876;23.474;2023-12-29T08:27:00;3.43;;;3.13;;
19388;SDS011;9830;41.876;23.474;2023-12-29T08:29:25;2.70;;;2.47;;
19388;SDS011;9830;41.876;23.474;2023-12-29T08:31:51;4.67;;;3.57;;
19388;SDS011;9830;41.876;23.474;2023-12-29T08:34:17;3.57;;;2.03;;
19388;SDS011;9830;41.876;23.474;2023-12-29T08:36:43;3.63;;;3.33;;
19388;SDS011;9830;41.876;23.474;2023-12-29T08:39:09;7.97;;;3.97;;
19388;SDS011;9830;41.876;23.474;2023-12-29T08:41:34;3.13;;;2.80;;
19388;SDS011;9830;41.876;23.474;2023-12-29T08:44:00;3.57;;;3.07;;
19388;SDS011;9830;41.876;23.474;2023-12-29T08:46:26;3.40;;;3.10;;
19388;SDS011;9830;41.876;23.474;2023-12-29T08:48:51;5.83;;;5.20;;
19388;SDS011;9830;41.876;23.474;2023-12-29T08:51:17;5.30;;;3.77;;
19388;SDS011;9830;41.876;23.474;2023-12-29T08:53:44;3.60;;;3.20;;
19388;SDS011;9830;41.876;23.474;2023-12-29T08:56:09;13.70;;;4.50;;
19388;SDS011;9830;41.876;23.474;2023-12-29T08:58:35;2.60;;;2.50;;
19388;SDS011;9830;41.876;23.474;2023-12-29T09:01:01;3.30;;;3.03;;
19388;SDS011;9830;41.876;23.474;2023-12-29T09:03:26;6.00;;;4.33;;
19388;SDS011;9830;41.876;23.474;2023-12-29T09:05:52;13.13;;;5.20;;
19388;SDS011;9830;41.876;23.474;2023-12-29T09:08:19;2.87;;;2.63;;
19388;SDS011;9830;41.876;23.474;2023-12-29T09:10:44;2.73;;;2.53;;
19388;SDS011;9830;41.876;23.474;2023-12-29T09:13:10;7.97;;;3.03;;
19388;SDS011;9830;41.876;23.474;2023-12-29T09:15:36;1.87;;;1.77;;
19388;SDS011;9830;41.876;23.474;2023-12-29T09:18:02;6.37;;;3.57;;
19388;SDS011;9830;41.876;23.474;2023-12-29T09:20:28;2.57;;;2.37;;
19388;SDS011;9830;41.876;23.474;2023-12-29T09:22:53;3.43;;;3.03;;
19388;SDS011;9830;41.876;23.474;2023-12-29T09:25:20;3.80;;;3.03;;
19388;SDS011;9830;41.876;23.474;2023-12-29T09:27:46;3.50;;;3.17;;
19388;SDS011;9830;41.876;23.474;2023-12-29T09:30:14;8.00;;;2.70;;
19388;SDS011;9830;41.876;23.474;2023-12-29T09:32:40;1.77;;;1.67;;
19388;SDS011;9830;41.876;23.474;2023-12-29T09:35:05;2.20;;;2.00;;
19388;SDS011;9830;41.876;23.474;2023-12-29T09:37:31;2.37;;;2.27;;
19388;SDS011;9830;41.876;23.474;2023-12-29T09:39:57;3.40;;;3.03;;
19388;SDS011;9830;41.876;23.474;2023-12-29T09:42:22;8.03;;;3.60;;
19388;SDS011;9830;41.876;23.474;2023-12-29T09:44:52;5.63;;;4.17;;
19388;SDS011;9830;41.876;23.474;2023-12-29T09:47:24;5.60;;;4.90;;
19388;SDS011;9830;41.876;23.474;2023-12-29T09:49:53;5.63;;;4.50;;
19388;SDS011;9830;41.876;23.474;2023-12-29T09:52:20;3.33;;;3.13;;
19388;SDS011;9830;41.876;23.474;2023-12-29T09:54:50;3.37;;;3.07;;
19388;SDS011;9830;41.876;23.474;2023-12-29T09:57:17;4.20;;;3.83;;
19388;SDS011;9830;41.876;23.474;2023-12-29T09:59:43;5.50;;;4.10;;
19388;SDS011;9830;41.876;23.474;2023-12-29T10:02:12;26.00;;;5.80;;
19388;SDS011;9830;41.876;23.474;2023-12-29T10:04:40;3.60;;;3.30;;
19388;SDS011;9830;41.876;23.474;2023-12-29T10:07:06;8.90;;;2.57;;
19388;SDS011;9830;41.876;23.474;2023-12-29T10:09:36;7.50;;;5.20;;
19388;SDS011;9830;41.876;23.474;2023-12-29T10:12:04;36.77;;;4.17;;
19388;SDS011;9830;41.876;23.474;2023-12-29T10:17:13;3.27;;;2.80;;
19388;SDS011;9830;41.876;23.474;2023-12-29T10:20:00;2.13;;;2.03;;
19388;SDS011;9830;41.876;23.474;2023-12-29T10:25:45;2.77;;;1.87;;
19388;SDS011;9830;41.876;23.474;2023-12-29T10:28:11;2.17;;;2.07;;
19388;SDS011;9830;41.876;23.474;2023-12-29T10:30:38;3.87;;;2.20;;
19388;SDS011;9830;41.876;23.474;2023-12-29T10:33:05;1.97;;;1.87;;
19388;SDS011;9830;41.876;23.474;2023-12-29T10:35:31;2.00;;;1.60;;
19388;SDS011;9830;41.876;23.474;2023-12-29T10:38:12;2.70;;;2.47;;
19388;SDS011;9830;41.876;23.474;2023-12-29T10:40:41;2.77;;;2.17;;
19388;SDS011;9830;41.876;23.474;2023-12-29T10:43:08;1.30;;;1.20;;
19388;SDS011;9830;41.876;23.474;2023-12-29T10:45:34;2.77;;;1.60;;
19388;SDS011;9830;41.876;23.474;2023-12-29T10:48:01;1.33;;;1.23;;
19388;SDS011;9830;41.876;23.474;2023-12-29T10:50:27;1.47;;;1.30;;
19388;SDS011;9830;41.876;23.474;2023-12-29T10:53:15;2.20;;;1.50;;
19388;SDS011;9830;41.876;23.474;2023-12-29T10:55:44;0.80;;;0.80;;
19388;SDS011;9830;41.876;23.474;2023-12-29T10:58:09;1.00;;;1.00;;
19388;SDS011;9830;41.876;23.474;2023-12-29T11:00:35;2.53;;;1.37;;
19388;SDS011;9830;41.876;23.474;2023-12-29T11:03:01;2.30;;;2.03;;
19388;SDS011;9830;41.876;23.474;2023-12-29T11:05:27;2.47;;;2.27;;
19388;SDS011;9830;41.876;23.474;2023-12-29T11:07:53;1.83;;;1.73;;
19388;SDS011;9830;41.876;23.474;2023-12-29T11:10:23;1.30;;;1.20;;
19388;SDS011;9830;41.876;23.474;2023-12-29T11:12:49;2.07;;;1.87;;
19388;SDS011;9830;41.876;23.474;2023-12-29T11:15:15;1.03;;;1.03;;
19388;SDS011;9830;41.876;23.474;2023-12-29T11:17:42;1.83;;;1.20;;
19388;SDS011;9830;41.876;23.474;2023-12-29T11:20:15;2.17;;;1.80;;
19388;SDS011;9830;41.876;23.474;2023-12-29T11:22:42;4.10;;;2.27;;
19388;SDS011;9830;41.876;23.474;2023-12-29T11:25:08;0.83;;;0.57;;
19388;SDS011;9830;41.876;23.474;2023-12-29T11:27:34;2.70;;;2.33;;
19388;SDS011;9830;41.876;23.474;2023-12-29T11:30:01;1.67;;;0.70;;
19388;SDS011;9830;41.876;23.474;2023-12-29T11:41:13;0.53;;;0.53;;
19388;SDS011;9830;41.876;23.474;2023-12-29T11:44:05;1.77;;;1.67;;
19388;SDS011;9830;41.876;23.474;2023-12-29T11:46:34;0.63;;;0.63;;
19388;SDS011;9830;41.876;23.474;2023-12-29T11:49:04;0.30;;;0.30;;
19388;SDS011;9830;41.876;23.474;2023-12-29T11:51:34;0.40;;;0.40;;
19388;SDS011;9830;41.876;23.474;2023-12-29T11:54:09;0.67;;;0.67;;
19388;SDS011;9830;41.876;23.474;2023-12-29T11:56:37;0.80;;;0.80;;
19388;SDS011;9830;41.876;23.474;2023-12-29T11:59:24;0.83;;;0.83;;
19388;SDS011;9830;41.876;23.474;2023-12-29T12:01:50;0.40;;;0.40;;
19388;SDS011;9830;41.876;23.474;2023-12-29T12:04:34;0.90;;;0.90;;
19388;SDS011;9830;41.876;23.474;2023-12-29T12:07:02;0.97;;;0.97;;
19388;SDS011;9830;41.876;23.474;2023-12-29T12:09:29;0.40;;;0.40;;
19388;SDS011;9830;41.876;23.474;2023-12-29T12:11:55;3.27;;;2.30;;
19388;SDS011;9830;41.876;23.474;2023-12-29T12:17:08;0.63;;;0.63;;
19388;SDS011;9830;41.876;23.474;2023-12-29T12:19:35;0.20;;;0.20;;
19388;SDS011;9830;41.876;23.474;2023-12-29T12:22:01;3.33;;;1.07;;
19388;SDS011;9830;41.876;23.474;2023-12-29T12:24:28;0.77;;;0.77;;
19388;SDS011;9830;41.876;23.474;2023-12-29T12:26:54;0.70;;;0.70;;
19388;SDS011;9830;41.876;23.474;2023-12-29T12:29:20;1.33;;;1.13;;
19388;SDS011;9830;41.876;23.474;2023-12-29T12:31:52;0.63;;;0.63;;
19388;SDS011;9830;41.876;23.474;2023-12-29T12:34:22;1.93;;;0.83;;
19388;SDS011;9830;41.876;23.474;2023-12-29T12:36:51;1.90;;;0.70;;
19388;SDS011;9830;41.876;23.474;2023-12-29T12:39:18;0.77;;;0.67;;
19388;SDS011;9830;41.876;23.474;2023-12-29T12:41:44;0.77;;;0.77;;
19388;SDS011;9830;41.876;23.474;2023-12-29T12:44:11;0.73;;;0.73;;
19388;SDS011;9830;41.876;23.474;2023-12-29T12:49:12;0.83;;;0.83;;
19388;SDS011;9830;41.876;23.474;2023-12-29T12:51:39;0.90;;;0.90;;
19388;SDS011;9830;41.876;23.474;2023-12-29T12:54:05;0.33;;;0.33;;
19388;SDS011;9830;41.876;23.474;2023-12-29T12:56:31;0.83;;;0.83;;
19388;SDS011;9830;41.876;23.474;2023-12-29T12:58:58;4.03;;;2.17;;
19388;SDS011;9830;41.876;23.474;2023-12-29T13:01:26;0.83;;;0.83;;
19388;SDS011;9830;41.876;23.474;2023-12-29T13:03:53;0.67;;;0.67;;
19388;SDS011;9830;41.876;23.474;2023-12-29T13:06:20;0.60;;;0.60;;
19388;SDS011;9830;41.876;23.474;2023-12-29T13:08:48;3.13;;;1.43;;
19388;SDS011;9830;41.876;23.474;2023-12-29T13:11:21;0.93;;;0.87;;
19388;SDS011;9830;41.876;23.474;2023-12-29T13:13:49;1.10;;;1.10;;
19388;SDS011;9830;41.876;23.474;2023-12-29T13:16:15;2.30;;;1.57;;
19388;SDS011;9830;41.876;23.474;2023-12-29T13:18:41;3.00;;;2.37;;
19388;SDS011;9830;41.876;23.474;2023-12-29T13:21:07;2.30;;;2.20;;
19388;SDS011;9830;41.876;23.474;2023-12-29T13:23:34;3.10;;;1.37;;
19388;SDS011;9830;41.876;23.474;2023-12-29T13:26:07;0.60;;;0.43;;
19388;SDS011;9830;41.876;23.474;2023-12-29T13:28:34;1.80;;;1.23;;
19388;SDS011;9830;41.876;23.474;2023-12-29T13:31:01;0.50;;;0.47;;
19388;SDS011;9830;41.876;23.474;2023-12-29T13:36:08;1.23;;;1.10;;
19388;SDS011;9830;41.876;23.474;2023-12-29T13:38:56;0.70;;;0.70;;
19388;SDS011;9830;41.876;23.474;2023-12-29T13:41:24;1.33;;;1.23;;
19388;SDS011;9830;41.876;23.474;2023-12-29T13:43:53;1.70;;;1.60;;
19388;SDS011;9830;41.876;23.474;2023-12-29T13:46:19;2.00;;;1.80;;
19388;SDS011;9830;41.876;23.474;2023-12-29T13:48:45;4.87;;;3.97;;
19388;SDS011;9830;41.876;23.474;2023-12-29T13:51:15;6.03;;;3.57;;
19388;SDS011;9830;41.876;23.474;2023-12-29T13:53:41;7.53;;;1.67;;
19388;SDS011;9830;41.876;23.474;2023-12-29T13:56:07;3.43;;;3.23;;
19388;SDS011;9830;41.876;23.474;2023-12-29T13:58:34;2.70;;;2.50;;
19388;SDS011;9830;41.876;23.474;2023-12-29T14:01:00;9.73;;;5.77;;
19388;SDS011;9830;41.876;23.474;2023-12-29T14:03:34;4.20;;;3.90;;
19388;SDS011;9830;41.876;23.474;2023-12-29T14:06:08;3.17;;;2.93;;
19388;SDS011;9830;41.876;23.474;2023-12-29T14:08:45;3.10;;;1.87;;
19388;SDS011;9830;41.876;23.474;2023-12-29T14:11:11;0.43;;;0.43;;
19388;SDS011;9830;41.876;23.474;2023-12-29T14:13:43;0.60;;;0.60;;
19388;SDS011;9830;41.876;23.474;2023-12-29T14:16:10;1.40;;;1.13;;
19388;SDS011;9830;41.876;23.474;2023-12-29T14:21:27;1.63;;;1.53;;
19388;SDS011;9830;41.876;23.474;2023-12-29T14:26:39;0.63;;;0.63;;
19388;SDS011;9830;41.876;23.474;2023-12-29T14:29:12;3.73;;;1.73;;
19388;SDS011;9830;41.876;23.474;2023-12-29T14:31:39;0.50;;;0.50;;
19388;SDS011;9830;41.876;23.474;2023-12-29T14:34:09;5.53;;;1.03;;
19388;SDS011;9830;41.876;23.474;2023-12-29T14:36:36;1.40;;;1.30;;
19388;SDS011;9830;41.876;23.474;2023-12-29T14:39:04;0.47;;;0.47;;
19388;SDS011;9830;41.876;23.474;2023-12-29T14:41:31;1.13;;;0.73;;
19388;SDS011;9830;41.876;23.474;2023-12-29T14:43:57;4.50;;;1.97;;
19388;SDS011;9830;41.876;23.474;2023-12-29T14:46:22;1.20;;;1.20;;
19388;SDS011;9830;41.876;23.474;2023-12-29T14:48:49;0.57;;;0.57;;
19388;SDS011;9830;41.876;23.474;2023-12-29T14:51:15;0.63;;;0.63;;
19388;SDS011;9830;41.876;23.474;2023-12-29T14:53:47;0.63;;;0.63;;
19388;SDS011;9830;41.876;23.474;2023-12-29T14:56:14;3.43;;;0.70;;
19388;SDS011;9830;41.876;23.474;2023-12-29T14:58:40;1.60;;;1.47;;
19388;SDS011;9830;41.876;23.474;2023-12-29T15:01:06;5.20;;;0.77;;
19388;SDS011;9830;41.876;23.474;2023-12-29T15:03:32;1.10;;;1.10;;
19388;SDS011;9830;41.876;23.474;2023-12-29T15:05:59;2.17;;;1.20;;
19388;SDS011;9830;41.876;23.474;2023-12-29T15:08:25;0.30;;;0.30;;
19388;SDS011;9830;41.876;23.474;2023-12-29T15:10:53;0.33;;;0.33;;
19388;SDS011;9830;41.876;23.474;2023-12-29T15:13:19;1.13;;;0.83;;